Impacts TAF Board
For situational awareness. Not to be used for flight planning purposes.
IDs:

KLUF - Phoenix/Luke AFB, AZ, US

Issued at 1200 UTC 30 Oct 2020
Updated at 1704 UTC 30 Oct 2020
Potential Impact None Slight Moderate High
Time1658Z 30/18Z 30/19Z 30/20Z 30/21Z 30/22Z 30/23Z 31/00Z 31/01Z 31/02Z 31/03Z 31/04Z 31/05Z 31/06Z>>
Type OBS PRVL PRVL PRVL PRVL PRVL PRVL PRVL PRVL PRVL PRVL PRVL PRVL PRVL
VIS 10 >6 >6 >6 >6 >6 >6 >6 >6 >6 >6 >6 >6 >6
CIG -- -- -- -- -- -- -- -- -- -- -- -- -- --
Cover CLR FEW FEW FEW FEW FEW FEW FEW FEW FEW FEW FEW FEW FEW
FltCat VFR VFR VFR VFR VFR VFR VFR VFR VFR VFR VFR VFR VFR VFR
WX -- -- -- -- -- -- -- -- -- -- -- -- -- --
WDir 50 VRB VRB VRB VRB VRB VRB VRB VRB VRB VRB VRB VRB VRB
WSpd 5 6 6 6 6 6 6 6 6 6 6 6 6 6
WGst -- -- -- -- -- -- -- -- -- -- -- -- -- --
Raw TAF
TAF KLUF 301200Z 3012/3118 VRB06KT 9999 FEW250 QNH2992INS TX29/3023Z TN12/3013Z

Raw METAR
KLUF 301658Z AUTO 05005KT 10SM CLR 23/02 A3004 RMK AO2 SLP165 T02330016 $
KLUF 301558Z AUTO 35003KT 10SM CLR 20/02 A3005 RMK AO2 SLP169 T02010020 $
KLUF 301458Z AUTO 00000KT 10SM CLR 17/01 A3003 RMK AO2 SLP163 T01650006 52012 $

METAR Board
For situational awareness. Not to be used for flight planning purposes.